Latest Weather Observations for Samuel Hill

IDQ60801

Issued at 10:02 am EST Wednesday 29 May 2024 (issued every 10 minutes, with the page automatically refreshed every 10 minutes)

About weather observations | Map of weather stations | Latest weather observations for QLD | Other Formats
Station Details ID: 033308 Name: SAMUEL HILL AERO Lat: -22.74 Lon: 150.66 Height: 31.0 m
Data from the previous 72 hours. | See also: Recent months at Samuel Hill
Date/Time
EST
Temp
°C
App
Temp
°C
Dew
Point
°C
Rel
Hum
%
Delta-T
°C
Wind Press
QNH
hPa
Press
MSL
hPa
Rain since
9am
mm
Dir  Spd
km/h
Gust
km/h
Spd
kts
Gust
kts
29/10:00am 19.5 20.0 17.5 88 1.2 SSE 11 20 6 11 1024.7 1024.6 0.2
29/09:30am 18.9 17.9 16.7 87 1.3 ESE 17 30 9 16 1025.0 1024.9 0.0
29/09:00am 20.2 20.6 19.0 93 0.8 SE 15 22 8 12 1024.4 1024.3 31.4
29/08:56am 20.1 20.1 18.9 93 0.8 SE 17 22 9 12 1024.4 1024.3 31.4
29/08:30am 19.5 19.8 18.7 95 0.5 SE 15 24 8 13 1024.2 1024.1 30.0
29/08:27am 19.4 19.5 18.4 94 0.6 SE 15 24 8 13 1024.2 1024.1 29.8
29/08:21am 19.6 20.5 18.3 92 0.8 SE 11 19 6 10 1024.1 1024.0 28.8
29/08:05am 19.3 19.8 18.3 94 0.6 SSE 13 19 7 10 1024.1 1024.0 28.8
29/08:00am 19.3 20.2 18.3 94 0.6 SE 11 19 6 10 1024.1 1024.0 28.8
29/07:58am 19.2 19.6 18.2 94 0.6 SE 13 20 7 11 1024.0 1023.9 28.8
29/07:44am 19.3 20.3 18.6 96 0.4 SSE 11 19 6 10 1023.9 1023.8 28.8
29/07:35am 19.1 20.0 18.4 96 0.4 SSE 11 17 6 9 1023.8 1023.7 28.8
29/07:30am 19.2 20.5 18.5 96 0.4 SSE 9 17 5 9 1023.7 1023.6 28.8
29/07:06am 18.8 19.9 18.1 96 0.4 SSE 9 19 5 10 1023.6 1023.5 23.0
29/07:00am 18.6 18.9 17.9 96 0.4 S 13 19 7 10 1023.4 1023.3 23.0
29/06:54am 18.6 19.3 17.9 96 0.4 SSE 11 19 6 10 1023.3 1023.2 23.0
29/06:30am 18.2 20.5 17.6 96 0.4 N 2 7 1 4 1023.1 1023.0 21.0
29/06:28am 18.2 20.1 17.6 96 0.4 NNE 4 9 2 5 1023.0 1022.9 21.0
29/06:27am 18.2 20.1 17.6 96 0.4 NNE 4 9 2 5 1023.0 1022.9 21.0
29/06:20am 18.2 19.1 17.6 96 0.4 ESE 9 17 5 9 1023.0 1022.9 21.0
29/06:09am 18.2 18.3 17.4 95 0.5 SSE 13 26 7 14 1022.7 1022.6 21.0
29/06:00am 18.2 18.7 17.4 95 0.5 SSE 11 20 6 11 1022.7 1022.6 20.6
29/05:49am 18.0 18.1 17.4 96 0.4 SSE 13 19 7 10 1022.7 1022.6 20.6
29/05:38am 18.0 18.9 17.5 97 0.3 S 9 15 5 8 1022.5 1022.4 20.4
29/05:30am 17.9 19.1 17.4 97 0.3 S 7 13 4 7 1022.5 1022.4 20.2
29/05:17am 17.9 19.1 17.3 96 0.4 ENE 7 9 4 5 1022.5 1022.4 19.4
29/05:00am 17.8 18.5 17.0 95 0.5 SSE 9 13 5 7 1022.1 1022.0 18.8
29/04:30am 18.5 18.3 17.5 94 0.6 SSE 15 30 8 16 1022.1 1022.0 18.8
29/04:00am 18.0 18.5 17.4 96 0.4 S 11 17 6 9 1022.2 1022.1 18.4
29/03:30am 17.8 18.9 17.2 96 0.4 S 7 9 4 5 1022.0 1021.9 18.4
29/03:00am 17.9 18.7 17.3 96 0.4 S 9 13 5 7 1022.1 1022.0 18.4
29/02:30am 18.1 19.2 17.0 93 0.7 SSE 7 13 4 7 1022.1 1022.0 18.4
29/02:00am 17.4 18.6 16.8 96 0.4 S 6 7 3 4 1022.2 1022.1 18.4
29/01:30am 17.5 18.1 16.9 96 0.4 SSW 9 13 5 7 1022.4 1022.3 18.4
29/01:00am 18.1 19.9 17.3 95 0.5 S 4 6 2 3 1022.7 1022.6 18.4
29/12:30am 18.3 18.6 17.0 92 0.8 SE 11 20 6 11 1022.8 1022.7 18.4
29/12:00am 18.5 18.0 16.8 90 1.0 ESE 15 24 8 13 1023.1 1023.0 18.4
 
Date/Time
EST
Temp
°C
App
Temp
°C
Dew
Point
°C
Rel
Hum
%
Delta-T
°C
Wind Press
QNH
hPa
Press
MSL
hPa
Rain since
9am
mm
Dir  Spd
km/h
Gust
km/h
Spd
kts
Gust
kts
28/11:30pm 18.2 19.1 16.5 90 1.0 S 7 11 4 6 1023.1 1023.0 18.2
28/11:00pm 18.8 19.5 16.2 85 1.5 SSE 7 9 4 5 1023.3 1023.2 18.2
28/10:30pm 19.5 19.1 16.3 82 1.9 SE 13 20 7 11 1023.4 1023.3 18.2
28/10:00pm 19.1 19.8 17.1 88 1.2 SSE 9 15 5 8 1023.5 1023.4 18.2
28/09:30pm 18.9 19.7 17.2 90 1.0 SSE 9 11 5 6 1023.3 1023.2 18.2
28/09:00pm 19.7 19.7 17.3 86 1.5 SE 13 19 7 10 1023.3 1023.2 18.2
28/08:30pm 19.0 20.4 17.7 92 0.8 SE 7 13 4 7 1023.2 1023.1 18.2
28/08:00pm 18.7 19.7 17.7 94 0.6 S 9 11 5 6 1023.1 1023.0 18.2
28/07:30pm 18.6 19.9 17.6 94 0.6 S 7 11 4 6 1022.8 1022.7 18.2
28/07:00pm 18.6 19.4 17.4 93 0.7 S 9 13 5 7 1022.7 1022.6 18.2
28/06:30pm 18.9 18.4 16.9 88 1.2 ESE 15 22 8 12 1022.6 1022.5 18.0
28/06:10pm 18.5 18.6 17.5 94 0.6 SE 13 22 7 12 1022.6 1022.5 18.0
28/06:00pm 18.5 18.2 17.3 93 0.7 SE 15 24 8 13 1022.6 1022.5 18.0
28/05:42pm 18.3 19.3 17.7 96 0.4 SE 9 26 5 14 1022.6 1022.5 14.8
28/05:30pm 18.2 19.4 17.4 95 0.5 S 7 11 4 6 1022.0 1021.9 13.2
28/05:00pm 18.0 18.7 17.0 94 0.6 S 9 13 5 7 1022.1 1022.0 13.2
28/04:30pm 18.2 18.8 16.7 91 0.9 SE 9 17 5 9 1022.0 1021.9 13.2
28/04:00pm 18.7 19.7 17.7 94 0.6 SSE 9 15 5 8 1021.8 1021.7 13.2
28/03:30pm 19.1 19.5 17.2 89 1.2 SE 11 20 6 11 1021.5 1021.4 13.2
28/03:00pm 18.8 19.4 17.8 94 0.6 ESE 11 17 6 9 1021.5 1021.4 13.2
28/02:55pm 18.6 19.2 17.6 94 0.6 ESE 11 19 6 10 1021.5 1021.4 13.2
28/02:30pm 18.2 17.8 17.2 94 0.6 SE 15 26 8 14 1021.5 1021.4 12.0
28/02:15pm 19.5 19.8 18.0 91 0.9 ESE 13 33 7 18 1021.8 1021.7 6.4
28/02:00pm 20.0 21.5 18.8 93 0.7 SSE 9 13 5 7 1021.5 1021.4 3.8
28/01:34pm 19.6 20.9 18.4 93 0.7 SE 9 15 5 8 1021.4 1021.3 3.8
28/01:30pm 19.4 20.7 18.4 94 0.6 SE 9 13 5 7 1021.4 1021.3 3.8
28/01:00pm 18.9 19.1 17.7 93 0.7 SSE 13 17 7 9 1022.0 1021.9 3.0
28/12:58pm 18.9 19.1 17.7 93 0.7 SSE 13 17 7 9 1022.0 1021.9 3.0
28/12:30pm 19.4 18.3 17.4 88 1.2 SE 19 26 10 14 1022.6 1022.5 2.6
28/12:00pm 19.9 21.0 17.9 88 1.2 SE 9 13 5 7 1022.9 1022.8 2.6
28/11:59am 19.8 20.9 17.9 89 1.2 SE 9 13 5 7 1022.8 1022.7 2.6
28/11:42am 20.0 20.0 18.1 89 1.2 ESE 15 24 8 13 1023.0 1022.9 2.4
28/11:30am 21.2 20.9 18.2 83 1.9 SE 17 24 9 13 1022.5 1022.4 1.2
28/11:00am 21.2 21.6 18.9 87 1.4 SSE 15 22 8 12 1022.8 1022.7 1.2
28/10:30am 20.3 22.0 19.3 94 0.6 SSE 9 15 5 8 1023.3 1023.2 1.2
28/10:18am 19.5 20.4 18.3 93 0.7 SSE 11 17 6 9 1023.4 1023.3 1.2
28/10:00am 19.6 20.0 18.1 91 0.9 SE 13 22 7 12 1023.8 1023.7 1.0
28/09:58am 19.7 20.1 18.2 91 0.9 SE 13 19 7 10 1023.8 1023.7 0.6
28/09:30am 20.2 21.5 18.5 90 1.1 SE 9 19 5 10 1023.6 1023.5 0.0
28/09:00am 19.6 20.5 18.3 92 0.8 SSE 11 17 6 9 1023.5 1023.4 2.2
28/08:30am 18.9 19.2 17.9 94 0.6 SSE 13 17 7 9 1023.2 1023.1 2.2
28/08:00am 18.3 19.3 17.7 96 0.4 SSE 9 13 5 7 1022.8 1022.7 2.2
28/07:30am 17.9 19.3 17.3 96 0.4 SSE 6 7 3 4 1022.7 1022.6 2.2
28/07:00am 18.1 19.3 17.3 95 0.5 SSE 7 9 4 5 1022.3 1022.2 2.2
28/06:30am 18.3 19.2 17.5 95 0.5 SSE 9 13 5 7 1022.1 1022.0 2.2
28/06:00am 17.9 19.0 17.1 95 0.5 SE 7 9 4 5 1021.7 1021.6 1.8
28/05:30am 18.1 18.8 17.1 94 0.6 SSE 9 13 5 7 1021.3 1021.2 1.8
28/05:00am 18.3 19.1 17.3 94 0.6 S 9 13 5 7 1021.0 1020.9 1.8
28/04:30am 18.5 19.0 17.5 94 0.6 SE 11 17 6 9 1021.1 1021.0 1.8
28/04:27am 18.6 18.8 17.6 94 0.6 SE 13 19 7 10 1021.3 1021.2 1.8
28/04:05am 18.4 19.4 17.8 96 0.4 SE 9 17 5 9 1021.3 1021.2 1.0
28/04:00am 18.2 19.1 17.6 96 0.4 SE 9 11 5 6 1021.0 1020.9 0.2
28/03:30am 18.1 19.5 17.3 95 0.5 S 6 9 3 5 1021.0 1020.9 0.0
28/03:00am 18.4 18.9 17.4 94 0.6 SE 11 20 6 11 1021.1 1021.0 0.0
28/02:30am 17.7 18.8 17.1 96 0.4 SSE 7 9 4 5 1020.9 1020.8 0.0
28/02:00am 17.8 18.6 17.2 96 0.4 SSE 9 11 5 6 1021.2 1021.1 0.0
28/01:30am 17.7 18.4 17.1 96 0.4 SSE 9 11 5 6 1021.5 1021.4 0.0
28/01:00am 17.5 18.1 16.9 96 0.4 SE 9 11 5 6 1021.7 1021.6 0.0
28/12:30am 17.8 18.5 17.0 95 0.5 SE 9 11 5 6 1021.8 1021.7 0.0
28/12:00am 18.2 19.0 17.2 94 0.6 SE 9 11 5 6 1022.0 1021.9 0.0
 
Date/Time
EST
Temp
°C
App
Temp
°C
Dew
Point
°C
Rel
Hum
%
Delta-T
°C
Wind Press
QNH
hPa
Press
MSL
hPa
Rain since
9am
mm
Dir  Spd
km/h
Gust
km/h
Spd
kts
Gust
kts
27/11:30pm 18.4 19.6 17.4 94 0.6 SE 7 11 4 6 1022.1 1022.0 0.0
27/11:00pm 18.8 20.2 17.8 94 0.6 SE 7 9 4 5 1022.3 1022.2 0.0
27/10:30pm 18.9 19.9 17.7 93 0.7 SSE 9 13 5 7 1022.4 1022.3 0.0
27/10:00pm 18.9 19.9 17.7 93 0.7 SSE 9 11 5 6 1022.4 1022.3 0.0
27/09:30pm 18.9 20.3 17.9 94 0.6 SSE 7 11 4 6 1022.7 1022.6 0.0
27/09:00pm 19.0 20.5 18.0 94 0.6 S 7 11 4 6 1022.5 1022.4 0.0
27/08:30pm 19.0 20.6 18.2 95 0.5 SE 7 11 4 6 1022.2 1022.1 0.0
27/08:00pm 19.1 20.3 18.3 95 0.5 SSE 9 11 5 6 1022.1 1022.0 0.0
27/07:30pm 19.1 20.3 18.3 95 0.5 SSE 9 13 5 7 1021.9 1021.8 0.0
27/07:00pm 19.1 20.6 18.1 94 0.6 SE 7 9 4 5 1021.6 1021.5 0.0
27/06:30pm 19.6 21.1 18.1 91 0.9 SE 7 9 4 5 1021.5 1021.4 0.0
27/06:00pm 19.9 21.4 18.0 89 1.2 SE 7 9 4 5 1021.3 1021.2 0.0
27/05:30pm 20.6 21.8 18.2 86 1.5 SE 9 15 5 8 1021.2 1021.1 0.0
27/05:00pm 21.1 22.0 18.3 84 1.7 SE 11 15 6 8 1021.0 1020.9 0.0
27/04:30pm 21.7 21.6 17.9 79 2.4 SE 15 22 8 12 1021.0 1020.9 0.0
27/04:00pm 22.0 21.5 17.8 77 2.6 SE 17 28 9 15 1020.7 1020.6 0.0
27/03:30pm 21.7 21.1 17.5 77 2.6 ESE 17 24 9 13 1020.6 1020.5 0.0
27/03:00pm 22.2 21.9 18.2 78 2.5 ESE 17 28 9 15 1020.3 1020.2 0.0
27/02:30pm 22.8 22.0 17.9 74 3.1 ESE 19 28 10 15 1020.4 1020.3 0.0
27/02:00pm 23.1 22.9 17.6 71 3.4 SE 15 22 8 12 1020.4 1020.3 0.0
27/01:30pm 22.8 22.4 18.1 75 2.9 SE 17 26 9 14 1020.5 1020.4 0.0
27/01:00pm 23.0 22.2 18.1 74 3.1 SE 19 28 10 15 1020.8 1020.7 0.0
27/12:30pm 23.4 23.0 18.1 72 3.3 SE 17 26 9 14 1021.1 1021.0 0.0
27/12:00pm 23.2 22.8 18.1 73 3.2 SE 17 24 9 13 1021.4 1021.3 0.0
27/11:30am 23.4 23.0 18.1 72 3.3 SE 17 26 9 14 1021.6 1021.5 0.0
27/11:00am 21.8 21.7 17.8 78 2.5 SSE 15 20 8 11 1022.2 1022.1 0.0
27/10:30am 21.4 21.1 17.4 78 2.5 SSE 15 20 8 11 1022.5 1022.4 0.0
27/10:00am 21.7 21.3 18.1 80 2.2 SE 17 26 9 14 1022.9 1022.8 0.0
27/09:30am 21.3 21.1 18.5 84 1.8 SE 17 28 9 15 1022.7 1022.6 0.0
27/09:00am 20.5 20.0 17.9 85 1.6 SSE 17 24 9 13 1022.6 1022.5 0.2
27/08:30am 19.4 19.6 17.7 90 1.0 SSE 13 19 7 10 1022.4 1022.3 0.2
27/08:00am 18.2 18.7 17.4 95 0.5 SSE 11 17 6 9 1022.1 1022.0 0.2
27/07:30am 16.7 17.1 16.2 97 0.3 SSE 9 13 5 7 1021.8 1021.7 0.2
27/07:00am 16.4 16.7 15.9 97 0.3 SSE 9 13 5 7 1021.7 1021.6 0.2
27/06:30am 16.0 16.2 15.7 98 0.2 SE 9 13 5 7 1021.4 1021.3 0.2
27/06:00am 16.1 16.7 15.8 98 0.2 SSE 7 13 4 7 1021.4 1021.3 0.2
27/05:30am 15.7 16.1 15.4 98 0.2 SE 7 9 4 5 1021.0 1020.9 0.2
27/05:00am 15.0 16.4 14.5 97 0.3 CALM 0 6 0 3 1021.2 1021.1 0.2
27/04:30am 15.5 16.1 15.2 98 0.2 SE 6 7 3 4 1020.8 1020.7 0.2
27/04:00am 15.9 17.0 15.6 98 0.2 SE 4 6 2 3 1020.9 1020.8 0.2
27/03:30am 15.6 16.0 15.3 98 0.2 SE 7 9 4 5 1020.7 1020.6 0.2
27/03:00am 14.3 15.5 13.8 97 0.3 CALM 0 6 0 3 1020.8 1020.7 0.2
27/02:30am 14.7 15.7 14.2 97 0.3 S 2 4 1 2 1021.2 1021.1 0.2
27/02:00am 16.5 16.9 16.2 98 0.2 S 9 11 5 6 1021.2 1021.1 0.2
27/01:30am 14.0 14.0 13.5 97 0.3 SSE 6 7 3 4 1021.4 1021.3 0.2
27/01:00am 14.4 15.7 14.1 98 0.2 CALM 0 0 0 0 1021.8 1021.7 0.2
27/12:30am 14.3 15.5 13.8 97 0.3 CALM 0 7 0 4 1021.7 1021.6 0.2
27/12:00am 14.5 15.8 14.0 97 0.3 CALM 0 0 0 0 1022.0 1021.9 0.2
 
Date/Time
EST
Temp
°C
App
Temp
°C
Dew
Point
°C
Rel
Hum
%
Delta-T
°C
Wind Press
QNH
hPa
Press
MSL
hPa
Rain since
9am
mm
Dir  Spd
km/h
Gust
km/h
Spd
kts
Gust
kts
26/11:30pm 14.9 16.3 14.4 97 0.3 CALM 0 0 0 0 1022.3 1022.2 0.2
26/11:00pm 14.8 15.8 14.3 97 0.3 SSE 2 6 1 3 1022.3 1022.2 0.2
26/10:30pm 15.4 16.6 14.9 97 0.3 SSE 2 6 1 3 1022.4 1022.3 0.2
26/10:00pm 15.4 17.0 14.8 96 0.3 CALM 0 0 0 0 1022.4 1022.3 0.2
26/09:30pm 16.9 17.7 16.4 97 0.3 SSE 7 9 4 5 1022.3 1022.2 0.2
26/09:00pm 16.1 17.6 15.6 97 0.3 ESE 2 9 1 5 1022.3 1022.2 0.2
26/08:30pm 16.4 18.3 15.8 96 0.4 CALM 0 0 0 0 1022.4 1022.3 0.2
26/08:00pm 16.5 18.4 15.7 95 0.5 CALM 0 0 0 0 1022.0 1021.9 0.2
26/07:30pm 17.5 18.9 16.5 94 0.6 ESE 4 6 2 3 1021.7 1021.6 0.2
26/07:00pm 18.3 19.6 17.1 93 0.7 ESE 6 9 3 5 1021.4 1021.3 0.2
26/06:30pm 18.8 19.7 17.5 92 0.8 SE 9 11 5 6 1021.2 1021.1 0.2
26/06:00pm 19.0 20.2 17.3 90 1.0 SE 7 9 4 5 1021.1 1021.0 0.2
26/05:30pm 20.1 21.3 17.3 84 1.7 SE 7 13 4 7 1020.7 1020.6 0.2
26/05:00pm 21.3 22.1 17.3 78 2.5 SE 9 13 5 7 1020.6 1020.5 0.2
26/04:30pm 22.0 22.0 17.2 74 3.0 SE 13 20 7 11 1020.3 1020.2 0.2
26/04:00pm 22.6 22.7 16.6 69 3.7 ESE 11 19 6 10 1020.1 1020.0 0.2
26/03:30pm 23.0 22.3 16.3 66 4.1 ESE 15 24 8 13 1020.0 1019.9 0.2
26/03:00pm 23.2 22.0 16.0 64 4.4 ESE 17 26 9 14 1020.0 1019.9 0.2
26/02:30pm 23.3 22.0 16.8 67 4.0 SE 19 26 10 14 1020.0 1019.9 0.2
26/02:00pm 23.6 22.0 16.1 62 4.5 SE 19 26 10 14 1020.1 1020.0 0.2
26/01:30pm 23.3 22.4 16.8 67 4.0 SE 17 26 9 14 1020.3 1020.2 0.2
26/01:00pm 22.1 21.3 17.2 74 3.0 SE 17 24 9 13 1020.8 1020.7 0.2
26/12:30pm 22.6 22.0 17.5 73 3.2 ESE 17 24 9 13 1021.2 1021.1 0.2
26/12:00pm 23.1 22.1 17.6 71 3.4 ESE 19 26 10 14 1021.6 1021.5 0.2
26/11:30am 23.2 23.3 19.2 78 2.5 ESE 17 30 9 16 1022.0 1021.9 0.0
26/11:00am 22.7 22.4 18.3 76 2.8 SE 17 24 9 13 1022.4 1022.3 0.0
26/10:30am 21.5 21.4 17.9 80 2.2 SE 15 28 8 15 1022.7 1022.6 0.0

Other formats

Comma delimited format used in spreadsheet applications
http://www.bom.gov.au/fwo/IDQ60801/IDQ60801.94370.axf

JavaScript Object Notation format (JSON) in row-major order
http://www.bom.gov.au/fwo/IDQ60801/IDQ60801.94370.json

Data quality

Most of these data are generated automatically and are frequently updated. Quality checks on data are not normally performed. It is possible for incorrect values to appear. Refer to information at About Latest Weather Observations and please check the disclaimer before using these data.